sensor_id;sensor_type;location;lat;lon;timestamp;pressure;altitude;pressure_sealevel;temperature;humidity
36304;BME280;22335;49.800;8.596;2023-01-26T00:02:01;101247.91;;;7.05;53.65
36304;BME280;22335;49.800;8.596;2023-01-26T00:08:48;101213.53;;;6.87;53.89
36304;BME280;22335;49.800;8.596;2023-01-26T00:15:34;101231.09;;;7.08;53.17
36304;BME280;22335;49.800;8.596;2023-01-26T00:22:17;101216.81;;;7.01;53.30
36304;BME280;22335;49.800;8.596;2023-01-26T00:29:02;101223.16;;;7.19;53.38
36304;BME280;22335;49.800;8.596;2023-01-26T00:35:52;101220.53;;;7.12;53.66
36304;BME280;22335;49.800;8.596;2023-01-26T00:42:36;101200.72;;;7.00;53.15
36304;BME280;22335;49.800;8.596;2023-01-26T00:49:21;101202.25;;;7.07;53.29
36304;BME280;22335;49.800;8.596;2023-01-26T00:56:07;101180.50;;;6.79;53.26
36304;BME280;22335;49.800;8.596;2023-01-26T01:02:50;101203.06;;;6.79;53.21
36304;BME280;22335;49.800;8.596;2023-01-26T01:09:35;101188.19;;;6.70;53.68
36304;BME280;22335;49.800;8.596;2023-01-26T01:16:19;101217.44;;;6.91;53.30
36304;BME280;22335;49.800;8.596;2023-01-26T01:23:02;101197.38;;;6.81;53.71
36304;BME280;22335;49.800;8.596;2023-01-26T01:29:49;101214.75;;;6.80;53.64
36304;BME280;22335;49.800;8.596;2023-01-26T01:36:33;101213.47;;;6.70;53.75
36304;BME280;22335;49.800;8.596;2023-01-26T01:43:17;101156.25;;;6.37;53.57
36304;BME280;22335;49.800;8.596;2023-01-26T01:50:02;101204.69;;;6.80;53.88
36304;BME280;22335;49.800;8.596;2023-01-26T01:56:51;101184.50;;;6.76;53.36
36304;BME280;22335;49.800;8.596;2023-01-26T02:03:39;101187.38;;;6.69;53.57
36304;BME280;22335;49.800;8.596;2023-01-26T02:10:24;101182.41;;;6.66;53.46
36304;BME280;22335;49.800;8.596;2023-01-26T02:17:08;101178.03;;;6.65;53.53
36304;BME280;22335;49.800;8.596;2023-01-26T02:24:02;101189.19;;;6.52;53.81
36304;BME280;22335;49.800;8.596;2023-01-26T02:30:53;101183.88;;;6.45;54.31
36304;BME280;22335;49.800;8.596;2023-01-26T02:37:38;101185.28;;;6.48;53.83
36304;BME280;22335;49.800;8.596;2023-01-26T02:44:22;101167.78;;;6.44;53.82
36304;BME280;22335;49.800;8.596;2023-01-26T02:51:07;101153.84;;;6.52;53.93
36304;BME280;22335;49.800;8.596;2023-01-26T02:57:53;101146.63;;;6.58;53.87
36304;BME280;22335;49.800;8.596;2023-01-26T03:04:37;101147.06;;;6.66;53.89
36304;BME280;22335;49.800;8.596;2023-01-26T03:11:22;101133.22;;;6.68;53.40
36304;BME280;22335;49.800;8.596;2023-01-26T03:18:22;101100.16;;;6.59;53.26
36304;BME280;22335;49.800;8.596;2023-01-26T03:25:23;101117.38;;;6.77;52.97
36304;BME280;22335;49.800;8.596;2023-01-26T03:32:26;101120.97;;;6.94;53.16
36304;BME280;22335;49.800;8.596;2023-01-26T03:39:09;101124.94;;;7.03;53.30
36304;BME280;22335;49.800;8.596;2023-01-26T04:01:17;101083.03;;;6.87;53.24
36304;BME280;22335;49.800;8.596;2023-01-26T04:08:05;101113.97;;;6.98;53.15
36304;BME280;22335;49.800;8.596;2023-01-26T04:15:15;101102.97;;;6.93;53.51
36304;BME280;22335;49.800;8.596;2023-01-26T04:22:18;101075.19;;;6.74;54.18
36304;BME280;22335;49.800;8.596;2023-01-26T04:29:03;100981.38;;;6.26;53.81
36304;BME280;22335;49.800;8.596;2023-01-26T04:35:48;101070.06;;;6.78;53.75
36304;BME280;22335;49.800;8.596;2023-01-26T04:42:33;101067.06;;;6.62;53.73
36304;BME280;22335;49.800;8.596;2023-01-26T04:49:18;101070.13;;;6.37;53.89
36304;BME280;22335;49.800;8.596;2023-01-26T04:56:02;101078.19;;;6.32;54.26
36304;BME280;22335;49.800;8.596;2023-01-26T05:02:48;101039.16;;;6.10;55.09
36304;BME280;22335;49.800;8.596;2023-01-26T05:09:32;101067.47;;;6.26;55.06
36304;BME280;22335;49.800;8.596;2023-01-26T05:16:35;101030.81;;;5.99;54.37
36304;BME280;22335;49.800;8.596;2023-01-26T05:23:36;101043.06;;;6.02;54.60
36304;BME280;22335;49.800;8.596;2023-01-26T05:30:23;101073.63;;;6.09;54.90
36304;BME280;22335;49.800;8.596;2023-01-26T05:37:08;101045.56;;;5.92;54.22
36304;BME280;22335;49.800;8.596;2023-01-26T05:43:58;101050.38;;;5.90;54.54
36304;BME280;22335;49.800;8.596;2023-01-26T05:51:04;101061.47;;;6.12;54.17
36304;BME280;22335;49.800;8.596;2023-01-26T05:57:50;101061.84;;;5.92;54.41
36304;BME280;22335;49.800;8.596;2023-01-26T06:04:34;101087.47;;;5.96;54.70
36304;BME280;22335;49.800;8.596;2023-01-26T06:11:18;101095.28;;;6.04;54.76
36304;BME280;22335;49.800;8.596;2023-01-26T06:18:19;101090.28;;;5.89;54.93
36304;BME280;22335;49.800;8.596;2023-01-26T06:25:08;101074.00;;;5.77;55.07
36304;BME280;22335;49.800;8.596;2023-01-26T06:31:52;101095.94;;;5.88;55.08
36304;BME280;22335;49.800;8.596;2023-01-26T06:38:36;101108.00;;;5.92;54.67
36304;BME280;22335;49.800;8.596;2023-01-26T06:45:22;101114.16;;;6.11;54.80
36304;BME280;22335;49.800;8.596;2023-01-26T06:52:26;101091.13;;;6.02;54.78
36304;BME280;22335;49.800;8.596;2023-01-26T06:59:42;101105.88;;;6.17;54.48
36304;BME280;22335;49.800;8.596;2023-01-26T07:06:47;101092.50;;;6.16;54.08
36304;BME280;22335;49.800;8.596;2023-01-26T07:13:30;101087.59;;;6.01;54.06
36304;BME280;22335;49.800;8.596;2023-01-26T07:20:14;101120.06;;;6.08;54.22
36304;BME280;22335;49.800;8.596;2023-01-26T07:26:59;101101.41;;;5.99;54.63
36304;BME280;22335;49.800;8.596;2023-01-26T07:33:43;101112.59;;;5.91;54.70
36304;BME280;22335;49.800;8.596;2023-01-26T07:40:26;101105.16;;;5.87;54.20
36304;BME280;22335;49.800;8.596;2023-01-26T07:47:11;101113.31;;;5.87;54.42
36304;BME280;22335;49.800;8.596;2023-01-26T07:53:55;101134.31;;;6.03;54.08
36304;BME280;22335;49.800;8.596;2023-01-26T08:00:39;101075.78;;;5.72;54.32
36304;BME280;22335;49.800;8.596;2023-01-26T08:07:24;101121.47;;;5.98;54.31
36304;BME280;22335;49.800;8.596;2023-01-26T08:14:07;101119.81;;;5.86;54.34
36304;BME280;22335;49.800;8.596;2023-01-26T08:20:51;101149.69;;;5.97;54.74
36304;BME280;22335;49.800;8.596;2023-01-26T08:27:36;101142.84;;;5.95;54.68
36304;BME280;22335;49.800;8.596;2023-01-26T08:34:20;101150.28;;;5.99;54.28
36304;BME280;22335;49.800;8.596;2023-01-26T08:41:04;101126.28;;;5.85;54.61
36304;BME280;22335;49.800;8.596;2023-01-26T08:47:49;101131.59;;;5.91;54.67
36304;BME280;22335;49.800;8.596;2023-01-26T08:54:33;101156.44;;;5.95;54.25
36304;BME280;22335;49.800;8.596;2023-01-26T09:01:16;101148.59;;;5.87;54.27
36304;BME280;22335;49.800;8.596;2023-01-26T09:08:01;101158.84;;;5.85;54.58
36304;BME280;22335;49.800;8.596;2023-01-26T09:14:45;101149.41;;;5.75;54.21
36304;BME280;22335;49.800;8.596;2023-01-26T09:21:28;101157.09;;;5.67;54.40
36304;BME280;22335;49.800;8.596;2023-01-26T09:28:13;101151.06;;;5.53;54.40
36304;BME280;22335;49.800;8.596;2023-01-26T09:34:57;101161.22;;;5.58;54.25
36304;BME280;22335;49.800;8.596;2023-01-26T09:41:49;101162.97;;;5.52;54.72
36304;BME280;22335;49.800;8.596;2023-01-26T09:48:43;101155.19;;;5.55;54.71
36304;BME280;22335;49.800;8.596;2023-01-26T09:55:32;101152.00;;;5.47;54.30
36304;BME280;22335;49.800;8.596;2023-01-26T10:02:22;101053.78;;;4.91;54.68
36304;BME280;22335;49.800;8.596;2023-01-26T10:09:19;101152.69;;;5.54;54.55
36304;BME280;22335;49.800;8.596;2023-01-26T10:16:08;101140.06;;;5.48;54.37
36304;BME280;22335;49.800;8.596;2023-01-26T10:22:54;101141.59;;;5.20;54.55
36304;BME280;22335;49.800;8.596;2023-01-26T10:29:42;101149.09;;;5.18;54.69
36304;BME280;22335;49.800;8.596;2023-01-26T10:36:28;101143.91;;;5.05;54.59
36304;BME280;22335;49.800;8.596;2023-01-26T10:43:16;101142.69;;;5.01;54.69
36304;BME280;22335;49.800;8.596;2023-01-26T10:50:20;101110.03;;;4.96;54.72
36304;BME280;22335;49.800;8.596;2023-01-26T10:57:15;101119.81;;;4.97;54.58
36304;BME280;22335;49.800;8.596;2023-01-26T11:04:05;101109.06;;;4.90;54.41
36304;BME280;22335;49.800;8.596;2023-01-26T11:10:53;101123.59;;;5.07;54.38
36304;BME280;22335;49.800;8.596;2023-01-26T11:17:42;101112.41;;;5.04;54.00
36304;BME280;22335;49.800;8.596;2023-01-26T11:24:33;101052.22;;;4.72;54.01
36304;BME280;22335;49.800;8.596;2023-01-26T11:31:33;101088.94;;;4.98;53.92
36304;BME280;22335;49.800;8.596;2023-01-26T11:38:33;101095.81;;;5.12;53.97
36304;BME280;22335;49.800;8.596;2023-01-26T11:45:25;101069.28;;;5.26;53.23
36304;BME280;22335;49.800;8.596;2023-01-26T11:52:20;101081.69;;;5.34;52.98
36304;BME280;22335;49.800;8.596;2023-01-26T11:59:12;101059.03;;;5.16;52.64
36304;BME280;22335;49.800;8.596;2023-01-26T12:06:03;101083.56;;;5.21;53.00
36304;BME280;22335;49.800;8.596;2023-01-26T12:12:54;101050.53;;;5.13;52.83
36304;BME280;22335;49.800;8.596;2023-01-26T12:19:47;101031.34;;;5.14;52.31
36304;BME280;22335;49.800;8.596;2023-01-26T12:26:41;101032.28;;;5.08;52.66
36304;BME280;22335;49.800;8.596;2023-01-26T12:33:31;101029.53;;;4.96;52.37
36304;BME280;22335;49.800;8.596;2023-01-26T12:40:26;101022.09;;;4.92;52.73
36304;BME280;22335;49.800;8.596;2023-01-26T12:47:17;101001.69;;;4.89;52.40
36304;BME280;22335;49.800;8.596;2023-01-26T12:54:12;101001.94;;;4.88;52.30
36304;BME280;22335;49.800;8.596;2023-01-26T13:00:59;101001.84;;;5.06;52.21
36304;BME280;22335;49.800;8.596;2023-01-26T13:07:45;101007.84;;;5.20;52.11
36304;BME280;22335;49.800;8.596;2023-01-26T13:14:35;101014.56;;;5.41;51.98
36304;BME280;22335;49.800;8.596;2023-01-26T13:21:25;100998.44;;;5.46;51.67
36304;BME280;22335;49.800;8.596;2023-01-26T13:28:12;100976.59;;;5.41;51.63
36304;BME280;22335;49.800;8.596;2023-01-26T13:34:58;101002.09;;;5.51;51.45
36304;BME280;22335;49.800;8.596;2023-01-26T13:41:46;101018.56;;;5.73;51.29
36304;BME280;22335;49.800;8.596;2023-01-26T13:48:36;100998.63;;;5.56;51.04
36304;BME280;22335;49.800;8.596;2023-01-26T13:55:28;100993.00;;;5.46;50.93
36304;BME280;22335;49.800;8.596;2023-01-26T14:02:20;100988.38;;;5.46;50.89
36304;BME280;22335;49.800;8.596;2023-01-26T14:09:09;100989.69;;;5.44;50.56
36304;BME280;22335;49.800;8.596;2023-01-26T14:15:58;101028.47;;;5.68;50.46
36304;BME280;22335;49.800;8.596;2023-01-26T14:22:42;101025.66;;;5.63;50.10
36304;BME280;22335;49.800;8.596;2023-01-26T14:29:29;100919.56;;;4.89;50.22
36304;BME280;22335;49.800;8.596;2023-01-26T14:36:20;101021.16;;;5.45;50.26
36304;BME280;22335;49.800;8.596;2023-01-26T14:43:05;101049.72;;;5.47;49.94
36304;BME280;22335;49.800;8.596;2023-01-26T14:49:54;101028.03;;;5.24;50.16
36304;BME280;22335;49.800;8.596;2023-01-26T14:56:45;101020.13;;;4.99;50.29
36304;BME280;22335;49.800;8.596;2023-01-26T15:03:32;101056.56;;;5.15;50.66
36304;BME280;22335;49.800;8.596;2023-01-26T15:10:26;101054.03;;;5.01;50.66
36304;BME280;22335;49.800;8.596;2023-01-26T15:17:37;101050.63;;;4.94;51.03
36304;BME280;22335;49.800;8.596;2023-01-26T15:24:21;101068.69;;;5.12;51.00
36304;BME280;22335;49.800;8.596;2023-01-26T15:31:05;101040.63;;;5.06;50.66
36304;BME280;22335;49.800;8.596;2023-01-26T15:37:59;101052.44;;;5.24;50.92
36304;BME280;22335;49.800;8.596;2023-01-26T15:44:43;100949.09;;;4.55;50.91
36304;BME280;22335;49.800;8.596;2023-01-26T15:51:27;101054.91;;;5.37;50.76
36304;BME280;22335;49.800;8.596;2023-01-26T15:58:11;101015.78;;;5.33;50.58
36304;BME280;22335;49.800;8.596;2023-01-26T16:04:55;101048.91;;;5.47;50.29
36304;BME280;22335;49.800;8.596;2023-01-26T16:11:42;101020.72;;;5.36;50.88
36304;BME280;22335;49.800;8.596;2023-01-26T16:18:30;101023.06;;;5.56;50.30
36304;BME280;22335;49.800;8.596;2023-01-26T16:25:20;101028.59;;;5.73;50.54
36304;BME280;22335;49.800;8.596;2023-01-26T16:32:25;101017.84;;;5.78;50.49
36304;BME280;22335;49.800;8.596;2023-01-26T16:39:11;101018.91;;;5.77;50.07
36304;BME280;22335;49.800;8.596;2023-01-26T16:45:54;101042.72;;;5.87;49.93
36304;BME280;22335;49.800;8.596;2023-01-26T16:52:39;101016.31;;;5.70;49.91
36304;BME280;22335;49.800;8.596;2023-01-26T16:59:24;101044.03;;;5.96;50.32
36304;BME280;22335;49.800;8.596;2023-01-26T17:06:07;101019.72;;;6.01;50.23
36304;BME280;22335;49.800;8.596;2023-01-26T17:12:52;101022.63;;;6.11;50.41
36304;BME280;22335;49.800;8.596;2023-01-26T17:19:37;101007.97;;;6.12;50.17
36304;BME280;22335;49.800;8.596;2023-01-26T17:26:21;101047.34;;;6.38;49.95
36304;BME280;22335;49.800;8.596;2023-01-26T17:33:04;101026.63;;;6.20;50.15
36304;BME280;22335;49.800;8.596;2023-01-26T17:39:49;101030.41;;;6.19;50.42
36304;BME280;22335;49.800;8.596;2023-01-26T17:46:33;101048.50;;;6.42;50.43
36304;BME280;22335;49.800;8.596;2023-01-26T17:53:16;101047.88;;;6.12;50.85
36304;BME280;22335;49.800;8.596;2023-01-26T18:00:02;100948.06;;;5.38;50.71
36304;BME280;22335;49.800;8.596;2023-01-26T18:06:48;101070.06;;;6.20;50.91
36304;BME280;22335;49.800;8.596;2023-01-26T18:13:32;101056.59;;;6.26;50.92
36304;BME280;22335;49.800;8.596;2023-01-26T18:20:17;101044.81;;;6.20;51.13
36304;BME280;22335;49.800;8.596;2023-01-26T18:27:01;101060.69;;;6.28;50.89
36304;BME280;22335;49.800;8.596;2023-01-26T18:33:45;101072.38;;;6.29;51.15
36304;BME280;22335;49.800;8.596;2023-01-26T18:40:30;101060.34;;;6.36;51.49
36304;BME280;22335;49.800;8.596;2023-01-26T18:47:13;101065.72;;;6.48;51.77
36304;BME280;22335;49.800;8.596;2023-01-26T18:53:57;101065.72;;;6.48;51.65
36304;BME280;22335;49.800;8.596;2023-01-26T19:00:42;101056.28;;;6.51;51.76
36304;BME280;22335;49.800;8.596;2023-01-26T19:07:26;101060.97;;;6.55;52.03
36304;BME280;22335;49.800;8.596;2023-01-26T19:14:09;101041.72;;;6.57;51.74
36304;BME280;22335;49.800;8.596;2023-01-26T19:20:57;101008.94;;;6.35;52.10
36304;BME280;22335;49.800;8.596;2023-01-26T19:27:47;101062.72;;;6.61;51.88
36304;BME280;22335;49.800;8.596;2023-01-26T19:34:31;101051.56;;;6.46;52.22
36304;BME280;22335;49.800;8.596;2023-01-26T19:41:17;101051.69;;;6.39;52.70
36304;BME280;22335;49.800;8.596;2023-01-26T19:48:01;101049.22;;;6.38;52.84
36304;BME280;22335;49.800;8.596;2023-01-26T19:54:45;101050.44;;;6.30;52.59
36304;BME280;22335;49.800;8.596;2023-01-26T20:01:30;101054.56;;;6.33;52.96
36304;BME280;22335;49.800;8.596;2023-01-26T20:08:14;101058.63;;;6.47;52.70
36304;BME280;22335;49.800;8.596;2023-01-26T20:14:57;101057.16;;;6.56;52.83
36304;BME280;22335;49.800;8.596;2023-01-26T20:21:42;101063.09;;;6.53;52.83
36304;BME280;22335;49.800;8.596;2023-01-26T20:28:26;101039.47;;;6.54;52.26
36304;BME280;22335;49.800;8.596;2023-01-26T20:35:11;101021.50;;;6.53;52.72
36304;BME280;22335;49.800;8.596;2023-01-26T20:41:56;101028.69;;;6.59;53.10
36304;BME280;22335;49.800;8.596;2023-01-26T20:48:40;101039.00;;;6.74;53.58
36304;BME280;22335;49.800;8.596;2023-01-26T20:55:23;101043.19;;;6.64;52.88
36304;BME280;22335;49.800;8.596;2023-01-26T21:02:11;101007.56;;;6.32;53.08
36304;BME280;22335;49.800;8.596;2023-01-26T21:08:57;101014.81;;;6.43;53.28
36304;BME280;22335;49.800;8.596;2023-01-26T21:15:40;101033.59;;;6.45;53.24
36304;BME280;22335;49.800;8.596;2023-01-26T21:22:25;100996.97;;;6.19;54.01
36304;BME280;22335;49.800;8.596;2023-01-26T21:29:11;101019.81;;;6.35;53.31
36304;BME280;22335;49.800;8.596;2023-01-26T21:35:56;100993.72;;;6.34;53.26
36304;BME280;22335;49.800;8.596;2023-01-26T21:42:41;100991.09;;;6.39;53.03
36304;BME280;22335;49.800;8.596;2023-01-26T21:49:25;100995.34;;;6.35;53.74
36304;BME280;22335;49.800;8.596;2023-01-26T21:56:10;100980.72;;;6.36;53.60
36304;BME280;22335;49.800;8.596;2023-01-26T22:02:56;100994.75;;;6.44;53.62
36304;BME280;22335;49.800;8.596;2023-01-26T22:09:41;100983.88;;;6.44;53.46
36304;BME280;22335;49.800;8.596;2023-01-26T22:16:24;100981.88;;;6.40;54.08
36304;BME280;22335;49.800;8.596;2023-01-26T22:23:10;100975.28;;;6.36;53.96
36304;BME280;22335;49.800;8.596;2023-01-26T22:29:54;100994.09;;;6.54;53.75
36304;BME280;22335;49.800;8.596;2023-01-26T22:36:38;100992.31;;;6.60;53.83
36304;BME280;22335;49.800;8.596;2023-01-26T22:43:23;100977.88;;;6.59;53.39
36304;BME280;22335;49.800;8.596;2023-01-26T22:50:08;100958.50;;;6.56;53.40
36304;BME280;22335;49.800;8.596;2023-01-26T22:56:52;100976.66;;;6.67;53.67
36304;BME280;22335;49.800;8.596;2023-01-26T23:03:38;100968.16;;;6.63;54.25
36304;BME280;22335;49.800;8.596;2023-01-26T23:10:22;100970.41;;;6.66;53.49
36304;BME280;22335;49.800;8.596;2023-01-26T23:17:06;100963.06;;;6.67;53.54
36304;BME280;22335;49.800;8.596;2023-01-26T23:23:50;100964.47;;;6.69;53.62
36304;BME280;22335;49.800;8.596;2023-01-26T23:30:34;100962.91;;;6.74;53.76
36304;BME280;22335;49.800;8.596;2023-01-26T23:37:17;100960.44;;;6.72;53.39
36304;BME280;22335;49.800;8.596;2023-01-26T23:44:02;100966.44;;;6.74;53.75
36304;BME280;22335;49.800;8.596;2023-01-26T23:50:46;100950.94;;;6.58;54.05
36304;BME280;22335;49.800;8.596;2023-01-26T23:57:29;100960.66;;;6.70;54.20
